Home > Products > Valid Products > TAF

000
FTUS44 KLCH 251700
TAFARA
TAF
KARA 251720Z 2518/2618 VRB04KT P6SM SKC=



000
FTUS44 KLCH 251700
TAFLCH
TAF
KLCH 251720Z 2518/2618 VRB04KT P6SM SKC=



000
FTUS44 KLCH 251700
TAFBPT
TAF
KBPT 251720Z 2518/2618 VRB05KT P6SM SKC=



000
FTUS44 KLCH 251700
TAFAEX
TAF
KAEX 251720Z 2518/2618 VRB03KT P6SM SKC=



000
FTUS44 KLCH 251700
TAFLFT
TAF
KLFT 251720Z 2518/2618 VRB04KT P6SM SKC=



000
FTUS44 KLCH 251700
TAFARA
TAF
KARA 251720Z 2518/2618 VRB04KT P6SM SKC=



000
FTUS44 KLCH 251700
TAFBPT
TAF
KBPT 251720Z 2518/2618 VRB05KT P6SM SKC=



000
FTUS44 KLCH 251700
TAFLCH
TAF
KLCH 251720Z 2518/2618 VRB04KT P6SM SKC=



000
FTUS44 KLCH 251700
TAFLFT
TAF
KLFT 251720Z 2518/2618 VRB04KT P6SM SKC=



000
FTUS44 KLCH 251700
TAFAEX
TAF
KAEX 251720Z 2518/2618 VRB03KT P6SM SKC=



000
FTUS44 KLCH 251300 AAA
TAFAEX
TAF AMD
KAEX 251328Z 2513/2612 28004KT P6SM SKC=



000
FTUS44 KLCH 251100
TAFLCH
TAF
KLCH 251120Z 2512/2612 02005KT P6SM SKC=



000
FTUS44 KLCH 251100
TAFAEX
TAF
KAEX 251120Z 2512/2612 28004KT P6SM SKC
      TEMPO 2512/2514 1/2SM FG BKN001=



000
FTUS44 KLCH 251100
TAFBPT
TAF
KBPT 251120Z 2512/2612 02005KT P6SM SKC=



000
FTUS44 KLCH 251100
TAFARA
TAF
KARA 251120Z 2512/2612 35005KT P6SM SKC=



000
FTUS44 KLCH 251100
TAFLFT
TAF
KLFT 251120Z 2512/2612 35005KT P6SM SKC=



000
FTUS44 KLCH 251100
TAFBPT
TAF
KBPT 251120Z 2512/2612 02005KT P6SM SKC=



000
FTUS44 KLCH 251100
TAFAEX
TAF
KAEX 251120Z 2512/2612 28004KT P6SM SKC
      TEMPO 2512/2514 1/2SM FG BKN001=



000
FTUS44 KLCH 251100
TAFLCH
TAF
KLCH 251120Z 2512/2612 02005KT P6SM SKC=



000
FTUS44 KLCH 251100
TAFARA
TAF
KARA 251120Z 2512/2612 35005KT P6SM SKC=



000
FTUS44 KLCH 251100
TAFLFT
TAF
KLFT 251120Z 2512/2612 35005KT P6SM SKC=



000
FTUS44 KLCH 250900 AAA
TAFAEX
TAF AMD
KAEX 250945Z 2510/2606 01005KT P6SM SKC
      TEMPO 2510/2514 1SM BR BKN001=



000
FTUS44 KLCH 250500
TAFLFT
TAF
KLFT 250520Z 2506/2606 01005KT P6SM SKC=



000
FTUS44 KLCH 250500
TAFBPT
TAF
KBPT 250520Z 2506/2606 VRB05KT P6SM SKC=



000
FTUS44 KLCH 250500
TAFARA
TAF
KARA 250520Z 2506/2606 01005KT P6SM SKC=



000
FTUS44 KLCH 250500
TAFAEX
TAF
KAEX 250520Z 2506/2606 01005KT P6SM SKC=



000
FTUS44 KLCH 250500
TAFLCH
TAF
KLCH 250520Z 2506/2606 02005KT P6SM SKC=



000
FTUS44 KLCH 242300
TAFARA
TAF
KARA 242322Z 2500/2524 01007KT P6SM SKC=



000
FTUS44 KLCH 242300
TAFAEX
TAF
KAEX 242322Z 2500/2524 01005KT P6SM SKC=



000
FTUS44 KLCH 242300
TAFLFT
TAF
KLFT 242322Z 2500/2524 01007KT P6SM SKC=



000
FTUS44 KLCH 242300
TAFLCH
TAF
KLCH 242322Z 2500/2524 02007KT P6SM SKC=



000
FTUS44 KLCH 242300
TAFBPT
TAF
KBPT 242322Z 2500/2524 02007KT P6SM SKC=



000
FTUS44 KLCH 241700
TAFLFT
TAF
KLFT 241720Z 2418/2518 01007KT P6SM SKC=



000
FTUS44 KLCH 241700
TAFARA
TAF
KARA 241720Z 2418/2518 01007KT P6SM SKC=



000
FTUS44 KLCH 241700
TAFLCH
TAF
KLCH 241720Z 2418/2518 02007KT P6SM SKC=



000
FTUS44 KLCH 241700
TAFAEX
TAF
KAEX 241720Z 2418/2518 01005KT P6SM SKC=



000
FTUS44 KLCH 241700
TAFBPT
TAF
KBPT 241720Z 2418/2518 02007KT P6SM SKC=



000
FTUS44 KLCH 241100
TAFLCH
TAF
KLCH 241120Z 2412/2512 02008KT P6SM SKC=



000
FTUS44 KLCH 241100
TAFAEX
TAF
KAEX 241120Z 2412/2512 01005KT P6SM SKC=



000
FTUS44 KLCH 241100
TAFARA
TAF
KARA 241120Z 2412/2512 01008KT P6SM SKC=



000
FTUS44 KLCH 241100
TAFBPT
TAF
KBPT 241120Z 2412/2512 02008KT P6SM SKC=



000
FTUS44 KLCH 241100
TAFLFT
TAF
KLFT 241120Z 2412/2512 01008KT P6SM SKC=



000
FTUS44 KLCH 240500
TAFARA
TAF
KARA 240522Z 2406/2506 VRB05KT P6SM SCT250=



000
FTUS44 KLCH 240500
TAFLFT
TAF
KLFT 240522Z 2406/2506 VRB05KT P6SM SCT250=



000
FTUS44 KLCH 240500
TAFAEX
TAF
KAEX 240522Z 2406/2506 VRB05KT P6SM SCT250=



000
FTUS44 KLCH 240500
TAFLCH
TAF
KLCH 240522Z 2406/2506 VRB05KT P6SM SCT250=



000
FTUS44 KLCH 240500
TAFBPT
TAF
KBPT 240522Z 2406/2506 VRB05KT P6SM SCT250=



000
FTUS44 KLCH 232300
TAFLFT
TAF
KLFT 232322Z 2400/2424 VRB05KT P6SM SCT250=



000
FTUS44 KLCH 232300
TAFAEX
TAF
KAEX 232322Z 2400/2424 VRB05KT P6SM SCT250=



000
FTUS44 KLCH 232300
TAFBPT
TAF
KBPT 232322Z 2400/2424 VRB05KT P6SM SCT250=



000
FTUS44 KLCH 232300
TAFARA
TAF
KARA 232322Z 2400/2424 VRB05KT P6SM SCT250=



000
FTUS44 KLCH 232300
TAFLCH
TAF
KLCH 232322Z 2400/2424 VRB05KT P6SM SCT250=



000
FTUS44 KLCH 231700
TAFARA
TAF
KARA 231722Z 2318/2418 VRB05KT P6SM SCT250=



000
FTUS44 KLCH 231700
TAFAEX
TAF
KAEX 231722Z 2318/2418 VRB05KT P6SM SCT250=



000
FTUS44 KLCH 231700
TAFLFT
TAF
KLFT 231722Z 2318/2418 VRB05KT P6SM SCT250=



000
FTUS44 KLCH 231700
TAFBPT
TAF
KBPT 231722Z 2318/2418 VRB05KT P6SM SCT250=



000
FTUS44 KLCH 231700
TAFLCH
TAF
KLCH 231722Z 2318/2418 VRB05KT P6SM SCT250=



000
FTUS44 KLCH 231100
TAFARA
TAF
KARA 231139Z 2312/2412 05009KT P6SM SCT250=



000
FTUS44 KLCH 231100
TAFAEX
TAF
KAEX 231139Z 2312/2412 03003KT P6SM SCT250
     FM231500 04006KT P6SM SCT250=



000
FTUS44 KLCH 231100
TAFBPT
TAF
KBPT 231139Z 2312/2412 05009KT P6SM SCT250=



000
FTUS44 KLCH 231100
TAFLCH
TAF
KLCH 231139Z 2312/2412 05009KT P6SM SCT250=



000
FTUS44 KLCH 231100
TAFLFT
TAF
KLFT 231139Z 2312/2412 04007KT P6SM SCT250=



000
FTUS44 KLCH 230500
TAFAEX
TAF
KAEX 230522Z 2306/2406 03004KT P6SM SKC
     FM231500 05007KT P6SM SCT250=



000
FTUS44 KLCH 230500
TAFARA
TAF
KARA 230522Z 2306/2406 03006KT P6SM SKC
     FM231500 06009KT P6SM SCT250=



000
FTUS44 KLCH 230500
TAFLFT
TAF
KLFT 230522Z 2306/2406 05005KT P6SM SKC
     FM231500 06007KT P6SM SCT250=



000
FTUS44 KLCH 230500
TAFLCH
TAF
KLCH 230522Z 2306/2406 05005KT P6SM SKC
     FM231500 06009KT P6SM SCT250=



000
FTUS44 KLCH 230500
TAFBPT
TAF
KBPT 230522Z 2306/2406 04006KT P6SM SKC
     FM231500 06009KT P6SM SCT250=



000
FTUS44 KLCH 222300
TAFARA
TAF
KARA 222320Z 2300/2324 03006KT P6SM SKC
     FM231500 06009KT P6SM SCT250=



000
FTUS44 KLCH 222300
TAFAEX
TAF
KAEX 222320Z 2300/2324 03004KT P6SM SKC
     FM231500 05007KT P6SM SCT250=



000
FTUS44 KLCH 222300
TAFLCH
TAF
KLCH 222320Z 2300/2324 05005KT P6SM SKC
     FM231500 06009KT P6SM SCT250=



000
FTUS44 KLCH 222300
TAFBPT
TAF
KBPT 222320Z 2300/2324 04006KT P6SM SKC
     FM231500 06009KT P6SM SCT250=



000
FTUS44 KLCH 222300
TAFLFT
TAF
KLFT 222320Z 2300/2324 05005KT P6SM SKC
     FM231500 06007KT P6SM SCT250=



    US Dept of Commerce
    National Oceanic and Atmospheric Administration
    National Weather Service
    1325 East West Highway
    Silver Spring, MD 20910
    Page Author: NWS Internet Services Team
Disclaimer
Information Quality
Credits
Glossary
Privacy Policy
Freedom of Information Act (FOIA)
About Us
Career Opportunities